Time;durP1;ratioP1;P1;durP2;ratioP2;P2;SDS_P1;SDS_P2;PMS_P1;PMS_P2;Temp;Humidity;BMP_temperature;BMP_pressure;BME280_temperature;BME280_humidity;BME280_pressure;Samples;Min_cycle;Max_cycle;Signal;HPM_P1;HPM_P2
2023/10/06 00:03:10;;;;;;;1.77;1.60;;;;;;;6.10;100.00;100243.94;4998024;28;20419;-64
2023/10/06 00:05:44;;;;;;;1.77;1.67;;;;;;;6.13;99.54;100243.63;4997550;28;20030;-66
2023/10/06 00:08:17;;;;;;;1.20;1.10;;;;;;;6.10;99.86;100251.88;4997005;28;20053;-64
2023/10/06 00:10:51;;;;;;;1.40;1.30;;;;;;;5.96;100.00;100250.50;4993972;28;20030;-64
2023/10/06 00:13:29;;;;;;;1.40;1.30;;;;;;;6.04;98.67;100266.47;4992390;28;20026;-64
2023/10/06 00:15:56;;;;;;;3.00;1.25;;;;;;;6.02;98.16;100279.00;4995243;28;20433;-64
2023/10/06 00:18:23;;;;;;;1.43;1.33;;;;;;;5.89;97.73;100259.97;4994828;28;20139;-65
2023/10/06 00:20:49;;;;;;;1.60;1.50;;;;;;;5.96;97.76;100284.03;4993336;28;20034;-65
2023/10/06 00:23:22;;;;;;;2.87;0.93;;;;;;;5.81;98.12;100260.72;4993545;28;20034;-64
2023/10/06 00:25:54;;;;;;;1.70;1.30;;;;;;;5.88;97.16;100280.28;4996050;28;20050;-65
2023/10/06 00:28:25;;;;;;;3.27;1.50;;;;;;;5.71;97.07;100254.59;4994509;28;20026;-64
2023/10/06 00:30:58;;;;;;;2.83;1.50;;;;;;;5.88;97.69;100292.66;4996539;28;20355;-64
2023/10/06 00:33:37;;;;;;;3.27;2.23;;;;;;;5.76;98.38;100277.94;4994903;28;20029;-63
2023/10/06 00:36:13;;;;;;;3.20;2.90;;;;;;;5.89;96.84;100292.56;4992696;28;20049;-65
2023/10/06 00:38:45;;;;;;;3.77;3.43;;;;;;;5.70;95.49;100287.28;4992807;28;20030;-66
2023/10/06 00:41:14;;;;;;;13.50;9.90;;;;;;;5.79;95.81;100299.66;4992579;28;20046;-64
2023/10/06 00:43:43;;;;;;;4.50;4.10;;;;;;;5.74;96.58;100315.09;4992604;28;20037;-65
2023/10/06 00:46:11;;;;;;;3.80;3.30;;;;;;;5.61;96.76;100304.00;4992037;28;20385;-64
2023/10/06 00:48:38;;;;;;;4.13;3.63;;;;;;;5.73;97.19;100316.06;4992134;28;20429;-64
2023/10/06 00:51:26;;;;;;;2.10;1.90;;;;;;;5.59;99.49;100314.72;4992155;28;20041;-65
2023/10/06 00:53:56;;;;;;;2.13;1.93;;;;;;;5.70;99.03;100332.19;4991214;28;20370;-64
2023/10/06 00:56:27;;;;;;;3.77;2.07;;;;;;;5.44;99.18;100302.91;4991177;28;20034;-65
2023/10/06 00:58:53;;;;;;;1.57;1.40;;;;;;;5.65;100.00;100345.00;4992214;28;20037;-64
2023/10/06 01:01:19;;;;;;;1.53;1.23;;;;;;;5.52;100.00;100329.47;4992198;28;20034;-65
2023/10/06 01:04:08;;;;;;;1.37;1.27;;;;;;;5.60;100.00;100363.09;4992196;28;20031;-66
2023/10/06 01:06:36;;;;;;;1.67;1.42;;;;;;;5.62;100.00;100363.78;4991607;28;20038;-64
2023/10/06 01:09:16;;;;;;;3.30;1.30;;;;;;;5.60;100.00;100361.28;4992093;28;20124;-64
2023/10/06 01:11:45;;;;;;;1.47;1.33;;;;;;;5.36;100.00;100333.63;4991877;28;20034;-65
2023/10/06 01:14:14;;;;;;;2.67;1.33;;;;;;;5.41;100.00;100347.25;4990901;28;20041;-64
2023/10/06 01:16:42;;;;;;;4.83;4.43;;;;;;;5.42;100.00;100349.75;4991954;28;20335;-64
2023/10/06 01:19:15;;;;;;;3.58;3.00;;;;;;;5.35;100.00;100347.81;4992059;28;20022;-64
2023/10/06 01:21:47;;;;;;;3.63;3.33;;;;;;;5.48;100.00;100386.16;4991879;28;20076;-64
2023/10/06 01:24:24;;;;;;;3.73;2.40;;;;;;;5.35;100.00;100374.22;4991646;28;20037;-66
2023/10/06 01:27:10;;;;;;;3.50;2.67;;;;;;;5.36;100.00;100381.16;4922797;28;2023906;-64
2023/10/06 01:29:36;;;;;;;2.20;2.00;;;;;;;5.37;100.00;100390.75;4991547;28;20030;-64
2023/10/06 01:32:09;;;;;;;1.60;1.50;;;;;;;5.33;100.00;100386.72;4992561;28;20034;-65
2023/10/06 01:34:38;;;;;;;1.80;1.70;;;;;;;5.47;100.00;100402.97;4992412;28;20035;-64
2023/10/06 01:37:11;;;;;;;2.70;1.70;;;;;;;5.46;99.92;100403.94;4992613;28;20038;-63
2023/10/06 01:39:38;;;;;;;5.33;2.17;;;;;;;5.39;99.07;100402.00;4994614;28;20080;-65
2023/10/06 01:42:07;;;;;;;2.57;1.60;;;;;;;5.41;100.00;100418.53;5000464;28;20038;-64
2023/10/06 01:44:34;;;;;;;;;;;;;;;5.41;100.00;100423.81;4999232;28;20026;-65
2023/10/06 01:47:01;;;;;;;1.57;1.47;;;;;;;5.26;100.00;100408.41;4998489;28;19920;-65
2023/10/06 01:49:27;;;;;;;1.50;1.30;;;;;;;5.17;100.00;100413.63;4999935;28;20112;-65
2023/10/06 01:51:53;;;;;;;1.60;1.50;;;;;;;5.23;100.00;100426.31;5000260;28;20027;-66
2023/10/06 01:54:20;;;;;;;1.53;1.43;;;;;;;5.13;100.00;100430.72;4999631;28;20019;-65
2023/10/06 01:56:47;;;;;;;1.63;1.10;;;;;;;4.10;100.00;100279.81;5000086;28;20056;-63
2023/10/06 01:59:16;;;;;;;1.90;1.67;;;;;;;4.92;98.80;100430.84;5000268;28;20041;-65
2023/10/06 02:01:43;;;;;;;1.37;1.27;;;;;;;4.90;100.00;100441.50;4999562;28;20045;-63
2023/10/06 02:04:14;;;;;;;1.60;1.07;;;;;;;4.88;100.00;100437.31;4996919;28;20466;-65
2023/10/06 02:06:51;;;;;;;1.30;1.17;;;;;;;4.42;100.00;100367.47;4996267;28;20037;-64
2023/10/06 02:09:18;;;;;;;2.83;1.03;;;;;;;4.85;99.85;100454.25;4996013;28;20026;-62
2023/10/06 02:11:46;;;;;;;1.33;1.23;;;;;;;4.92;99.87;100484.44;4994780;28;20141;-65
2023/10/06 02:14:17;;;;;;;1.30;1.20;;;;;;;4.77;99.84;100471.72;4996989;28;20089;-65
2023/10/06 02:16:44;;;;;;;3.77;2.17;;;;;;;4.54;100.00;100463.97;4997566;28;20030;-65
2023/10/06 02:19:11;;;;;;;2.08;1.25;;;;;;;4.72;100.00;100500.31;5003158;28;20026;-63
2023/10/06 02:21:49;;;;;;;1.83;1.63;;;;;;;4.42;100.00;100459.75;4996536;28;20038;-63
2023/10/06 02:24:18;;;;;;;1.73;1.58;;;;;;;4.53;100.00;100499.22;4996195;28;20053;-64
2023/10/06 02:26:50;;;;;;;2.37;2.00;;;;;;;4.50;100.00;100519.75;4996087;28;20058;-64
2023/10/06 02:29:21;;;;;;;3.00;1.27;;;;;;;4.46;100.00;100535.00;4996301;28;20481;-64
2023/10/06 02:31:47;;;;;;;1.53;1.40;;;;;;;4.32;100.00;100504.50;4995970;28;20424;-65
2023/10/06 02:34:24;;;;;;;1.80;1.70;;;;;;;4.26;100.00;100510.28;4994740;28;20369;-65
2023/10/06 02:36:52;;;;;;;1.50;1.40;;;;;;;4.17;100.00;100513.72;4995800;28;20358;-65
2023/10/06 02:39:19;;;;;;;1.93;1.57;;;;;;;4.17;100.00;100523.41;4995599;28;20312;-65
2023/10/06 02:41:46;;;;;;;3.50;1.60;;;;;;;4.07;100.00;100526.00;4994360;28;20363;-65
2023/10/06 02:44:15;;;;;;;3.10;1.50;;;;;;;4.00;100.00;100530.06;4995603;28;20262;-63
2023/10/06 02:46:44;;;;;;;1.75;1.50;;;;;;;4.06;100.00;100555.09;4995745;28;20304;-64
2023/10/06 02:49:13;;;;;;;2.73;1.80;;;;;;;3.98;100.00;100550.44;4995929;28;20393;-63
2023/10/06 02:51:48;;;;;;;3.42;1.75;;;;;;;3.92;100.00;100567.59;4994626;28;20654;-63
2023/10/06 02:56:45;;;;;;;4.22;1.60;;;;;;;3.84;100.00;100559.47;4995282;28;20320;-64
2023/10/06 02:59:21;;;;;;;;;;;;;;;3.94;100.00;100592.00;4994245;28;20378;-64
2023/10/06 03:01:56;;;;;;;1.50;1.40;;;;;;;3.81;100.00;100586.06;4995651;28;19964;-65
2023/10/06 03:04:25;;;;;;;1.93;1.23;;;;;;;3.79;100.00;100585.38;4996192;28;20293;-64
2023/10/06 03:06:58;;;;;;;3.23;1.47;;;;;;;3.54;100.00;100541.72;4997434;28;20261;-63
2023/10/06 03:09:38;;;;;;;1.70;1.57;;;;;;;3.78;100.00;100590.75;4995256;28;20269;-66
2023/10/06 03:12:40;;;;;;;1.53;1.37;;;;;;;3.77;100.00;100600.44;4993712;28;20625;-66
2023/10/06 03:14:59;;;;;;;5.87;1.20;;;;;;;3.70;100.00;100591.34;4992510;28;20365;-64
2023/10/06 03:17:24;;;;;;;1.33;1.23;;;;;;;3.69;100.00;100598.41;4993746;28;20372;-63
2023/10/06 03:20:07;;;;;;;1.90;1.30;;;;;;;3.72;100.00;100615.75;4994886;28;20033;-66
2023/10/06 03:22:37;;;;;;;1.80;1.33;;;;;;;3.37;100.00;100564.09;4994709;28;20457;-64
2023/10/06 03:25:17;;;;;;;5.37;1.70;;;;;;;3.65;100.00;100617.22;4993394;28;20610;-64
2023/10/06 03:27:54;;;;;;;1.30;1.10;;;;;;;3.63;100.00;100619.13;4994606;28;20360;-64
2023/10/06 03:30:34;;;;;;;2.73;1.43;;;;;;;3.61;100.00;100626.31;4994671;28;20274;-65
2023/10/06 03:33:03;;;;;;;1.50;1.40;;;;;;;3.58;100.00;100627.41;4993283;28;20286;-63
2023/10/06 03:35:48;;;;;;;1.60;1.50;;;;;;;3.46;100.00;100627.50;4994542;28;20276;-65
2023/10/06 03:40:59;;;;;;;1.25;1.15;;;;;;;3.20;100.00;100617.25;4994413;28;20344;-64
2023/10/06 03:43:34;;;;;;;2.87;1.43;;;;;;;3.39;100.00;100654.31;4994209;28;20042;-65
2023/10/06 03:46:00;;;;;;;1.80;1.43;;;;;;;3.35;100.00;100658.16;4994500;28;20261;-65
2023/10/06 03:48:29;;;;;;;1.83;1.23;;;;;;;3.34;100.00;100667.00;4993342;28;20266;-67
2023/10/06 03:50:56;;;;;;;2.45;1.80;;;;;;;3.30;100.00;100665.56;4994189;28;20288;-64
2023/10/06 03:53:25;;;;;;;2.03;1.30;;;;;;;3.30;100.00;100675.25;4994505;28;20084;-63
2023/10/06 03:55:50;;;;;;;3.20;1.80;;;;;;;3.25;100.00;100683.53;4992882;28;20265;-64
2023/10/06 03:58:18;;;;;;;3.93;1.43;;;;;;;3.25;100.00;100693.22;4993666;28;20280;-65
2023/10/06 04:00:47;;;;;;;2.03;1.47;;;;;;;3.17;100.00;100683.25;4993976;28;20101;-65
2023/10/06 04:03:17;;;;;;;3.07;1.50;;;;;;;3.15;100.00;100679.91;4993299;28;20273;-65
2023/10/06 04:05:44;;;;;;;;;;;;;;;3.25;100.00;100694.06;4994219;28;20275;-64
2023/10/06 04:08:15;;;;;;;3.63;1.80;;;;;;;3.04;100.00;100679.88;4994054;28;19945;-65
2023/10/06 04:10:48;;;;;;;1.57;1.40;;;;;;;3.13;100.00;100699.38;4992344;28;20265;-64
2023/10/06 04:13:16;;;;;;;2.53;1.73;;;;;;;2.94;100.00;100671.03;4993036;28;20289;-65
2023/10/06 04:15:43;;;;;;;1.58;1.40;;;;;;;2.92;100.00;100686.09;4993149;28;20373;-64
2023/10/06 04:18:10;;;;;;;2.27;1.40;;;;;;;3.08;100.00;100720.78;4992316;28;20092;-63
2023/10/06 04:20:43;;;;;;;8.00;2.40;;;;;;;2.87;100.00;100698.72;4993521;28;20258;-65
2023/10/06 04:23:11;;;;;;;1.90;1.40;;;;;;;2.58;100.00;100667.53;4993404;28;20257;-65
2023/10/06 04:25:41;;;;;;;2.33;1.55;;;;;;;2.86;100.00;100723.34;4993959;28;20282;-63
2023/10/06 04:28:14;;;;;;;2.37;1.40;;;;;;;2.93;100.00;100730.69;4996007;28;20049;-65
2023/10/06 04:30:44;;;;;;;3.77;1.70;;;;;;;2.95;100.00;100725.31;4995940;28;20713;-64
2023/10/06 04:33:11;;;;;;;2.13;1.60;;;;;;;3.00;100.00;100745.06;4992107;28;20293;-64
2023/10/06 04:35:47;;;;;;;3.73;1.77;;;;;;;3.00;100.00;100757.38;4992043;28;20272;-64
2023/10/06 04:38:13;;;;;;;2.97;1.53;;;;;;;2.96;100.00;100745.41;4993350;28;20312;-66
2023/10/06 04:40:42;;;;;;;2.10;1.50;;;;;;;2.74;100.00;100723.31;4992102;28;20254;-65
2023/10/06 04:43:08;;;;;;;2.50;1.60;;;;;;;2.73;100.00;100732.16;4992856;28;20265;-65
2023/10/06 04:45:33;;;;;;;3.17;1.57;;;;;;;2.82;100.00;100748.19;4993976;28;20036;-67
2023/10/06 04:48:00;;;;;;;3.93;2.40;;;;;;;2.95;100.00;100767.41;4992912;28;20393;-70
2023/10/06 04:50:30;;;;;;;5.83;2.10;;;;;;;2.91;100.00;100758.91;4992893;28;20145;-68
2023/10/06 04:52:56;;;;;;;4.63;2.30;;;;;;;2.80;100.00;100762.31;4992545;28;20622;-68
2023/10/06 04:55:22;;;;;;;2.23;1.50;;;;;;;2.76;100.00;100771.38;4992897;28;20278;-67
2023/10/06 04:57:48;;;;;;;3.70;2.10;;;;;;;2.90;100.00;100794.06;4992478;28;20288;-64
2023/10/06 05:00:27;;;;;;;2.00;1.73;;;;;;;2.74;100.00;100783.81;4992370;28;20034;-65
2023/10/06 05:02:52;;;;;;;;;;;;;;;2.92;100.00;100807.09;4993073;28;20030;-67
2023/10/06 05:05:20;;;;;;;3.13;1.60;;;;;;;2.77;100.00;100794.09;4992831;28;19909;-66
2023/10/06 05:07:53;;;;;;;2.42;1.48;;;;;;;2.90;100.00;100816.88;4992891;28;20417;-64
2023/10/06 05:10:25;;;;;;;2.47;1.20;;;;;;;2.91;100.00;100815.94;4993052;28;20034;-64
2023/10/06 05:12:52;;;;;;;2.10;1.67;;;;;;;2.92;100.00;100817.63;4992946;28;20290;-64
2023/10/06 05:15:26;;;;;;;2.53;1.57;;;;;;;2.85;100.00;100803.22;4992858;28;20261;-64
2023/10/06 05:17:55;;;;;;;3.13;1.60;;;;;;;2.71;100.00;100789.28;4993555;28;20788;-67
2023/10/06 05:20:29;;;;;;;4.73;2.47;;;;;;;2.87;100.00;100811.81;4992882;28;20265;-66
2023/10/06 05:23:09;;;;;;;2.33;1.83;;;;;;;2.90;100.00;100824.78;4992725;28;20828;-64
2023/10/06 05:25:39;;;;;;;1.67;1.57;;;;;;;3.01;100.00;100838.81;4992466;28;20745;-67
2023/10/06 05:28:07;;;;;;;3.90;1.53;;;;;;;2.88;100.00;100837.16;4992180;28;20331;-65
2023/10/06 05:30:33;;;;;;;5.93;1.90;;;;;;;2.94;100.00;100827.06;4992565;28;20277;-65
2023/10/06 05:33:03;;;;;;;4.03;1.70;;;;;;;3.00;100.00;100833.66;4992132;28;20048;-66
2023/10/06 05:35:36;;;;;;;3.33;1.50;;;;;;;3.00;100.00;100849.44;4992642;28;20093;-67
2023/10/06 05:38:03;;;;;;;2.57;1.57;;;;;;;2.65;100.00;100794.16;4992367;28;20265;-66
2023/10/06 05:40:29;;;;;;;4.77;1.67;;;;;;;3.13;100.00;100873.06;4992158;28;20265;-65
2023/10/06 05:42:55;;;;;;;3.23;1.90;;;;;;;3.19;100.00;100864.75;4992477;28;20311;-62
2023/10/06 05:45:21;;;;;;;2.43;1.90;;;;;;;3.11;100.00;100852.13;4993708;28;20269;-65
2023/10/06 05:47:50;;;;;;;5.17;1.50;;;;;;;3.06;100.00;100856.88;4998839;28;20258;-66
2023/10/06 05:50:21;;;;;;;3.00;1.60;;;;;;;3.21;100.00;100879.47;4992663;28;20034;-72
2023/10/06 05:52:51;;;;;;;3.50;1.80;;;;;;;3.19;100.00;100877.91;4992671;28;20765;-64
2023/10/06 05:55:19;;;;;;;2.63;1.97;;;;;;;3.16;100.00;100859.69;4991910;28;20270;-64
2023/10/06 05:57:52;;;;;;;2.40;1.70;;;;;;;3.21;100.00;100868.94;4992760;28;20819;-65
2023/10/06 06:00:24;;;;;;;2.67;1.70;;;;;;;3.36;100.00;100891.47;4985992;28;20258;-63
2023/10/06 06:02:58;;;;;;;6.07;1.93;;;;;;;3.39;100.00;100891.25;4990810;28;21090;-63
2023/10/06 06:05:25;;;;;;;4.83;2.10;;;;;;;3.10;100.00;100848.66;4992208;28;20360;-66
2023/10/06 06:07:51;;;;;;;7.37;2.23;;;;;;;3.40;100.00;100900.84;4991980;28;20260;-65
2023/10/06 06:10:18;;;;;;;3.60;2.10;;;;;;;3.25;100.00;100867.75;4981890;28;20270;-65
2023/10/06 06:12:44;;;;;;;6.53;2.27;;;;;;;3.54;100.00;100901.63;4981757;28;20037;-63
2023/10/06 06:15:11;;;;;;;5.03;2.43;;;;;;;3.49;100.00;100895.88;4978968;28;20259;-63
2023/10/06 06:17:38;;;;;;;1.40;1.23;;;;;;;3.40;100.00;100879.78;4983186;28;20030;-64
2023/10/06 06:20:07;;;;;;;4.47;2.43;;;;;;;3.56;100.00;100889.19;4972500;28;20254;-67
2023/10/06 06:22:36;;;;;;;2.30;1.50;;;;;;;3.57;100.00;100890.84;4973116;28;20258;-64
2023/10/06 06:25:09;;;;;;;2.93;1.70;;;;;;;3.33;100.00;100848.75;4971933;28;20266;-64
2023/10/06 06:27:35;;;;;;;5.30;2.53;;;;;;;3.73;100.00;100904.53;4976532;28;20688;-63
2023/10/06 06:30:00;;;;;;;2.87;1.93;;;;;;;3.71;100.00;100914.34;4976413;28;20414;-65
2023/10/06 06:32:26;;;;;;;2.00;1.57;;;;;;;3.70;100.00;100907.41;4975832;28;20050;-63
2023/10/06 06:34:53;;;;;;;4.13;1.60;;;;;;;3.75;100.00;100910.53;4982549;28;20045;-64
2023/10/06 06:37:20;;;;;;;5.43;2.60;;;;;;;3.69;100.00;100897.81;4987056;28;20121;-63
2023/10/06 06:39:46;;;;;;;3.33;1.60;;;;;;;3.87;100.00;100929.88;4983862;28;20265;-65
2023/10/06 06:42:12;;;;;;;2.97;1.60;;;;;;;3.97;100.00;100944.00;4986469;28;20258;-64
2023/10/06 06:44:37;;;;;;;2.73;1.70;;;;;;;4.02;100.00;100942.72;4983320;28;20029;-65
2023/10/06 06:47:03;;;;;;;4.17;2.00;;;;;;;4.08;100.00;100946.69;4983770;28;20077;-63
2023/10/06 06:49:29;;;;;;;3.10;2.20;;;;;;;4.13;100.00;100949.81;4985801;28;20026;-64
2023/10/06 06:51:58;;;;;;;3.77;1.50;;;;;;;4.13;100.00;100948.97;4978181;28;20454;-63
2023/10/06 06:54:27;;;;;;;5.57;2.07;;;;;;;4.15;100.00;100941.78;4974413;28;20312;-63
2023/10/06 06:56:53;;;;;;;3.80;2.00;;;;;;;4.26;100.00;100957.63;4975533;28;20306;-65
2023/10/06 06:59:20;;;;;;;3.40;2.00;;;;;;;4.21;100.00;100943.97;4974259;28;20031;-65
2023/10/06 07:01:47;;;;;;;4.73;2.50;;;;;;;4.31;100.00;100963.38;4975553;28;20270;-68
2023/10/06 07:04:14;;;;;;;7.33;2.23;;;;;;;4.13;100.00;100925.25;4975532;28;20312;-68
2023/10/06 07:06:40;;;;;;;4.13;2.10;;;;;;;4.18;100.00;100925.75;4974691;28;20296;-67
2023/10/06 07:09:12;;;;;;;3.90;2.00;;;;;;;3.95;100.00;100890.59;4975822;28;20744;-67
2023/10/06 07:11:41;;;;;;;2.73;1.70;;;;;;;4.49;100.00;100972.53;4975844;28;20294;-67
2023/10/06 07:14:06;;;;;;;2.55;1.55;;;;;;;4.51;100.00;100980.31;4976136;28;20310;-68
2023/10/06 07:16:34;;;;;;;3.37;1.70;;;;;;;4.31;100.00;100948.41;4976483;28;20062;-67
2023/10/06 07:18:59;;;;;;;6.30;2.53;;;;;;;4.58;100.00;100987.63;4975889;28;20541;-68
2023/10/06 07:21:25;;;;;;;8.60;2.00;;;;;;;4.26;100.00;100918.91;4974978;28;20399;-68
2023/10/06 07:23:52;;;;;;;5.43;1.90;;;;;;;4.72;100.00;100988.38;4975081;28;20034;-68
2023/10/06 07:26:18;;;;;;;3.30;1.87;;;;;;;4.66;100.00;100979.97;4975212;28;20055;-68
2023/10/06 07:28:51;;;;;;;5.80;2.23;;;;;;;4.84;100.00;101003.22;4974929;28;20281;-67
2023/10/06 07:31:17;;;;;;;4.80;2.33;;;;;;;4.77;100.00;100979.13;4973844;28;20313;-67
2023/10/06 07:33:52;;;;;;;5.37;1.90;;;;;;;4.89;100.00;100995.78;4975495;28;20293;-70
2023/10/06 07:36:17;;;;;;;4.07;1.60;;;;;;;4.88;100.00;100994.94;4974353;28;20071;-70
2023/10/06 07:38:44;;;;;;;4.10;1.97;;;;;;;5.02;99.76;101001.81;4973373;28;20258;-69
2023/10/06 07:41:23;;;;;;;8.10;1.93;;;;;;;5.11;100.00;101006.34;4974778;28;20033;-67
2023/10/06 07:43:52;;;;;;;3.00;1.90;;;;;;;5.08;99.13;100990.75;4974962;28;20743;-70
2023/10/06 07:46:18;;;;;;;;;;;;;;;5.23;99.48;101009.84;4975227;28;20121;-68
2023/10/06 07:48:47;;;;;;;4.50;2.27;;;;;;;5.15;97.88;101005.13;4975168;28;19957;-68
2023/10/06 07:51:19;;;;;;;4.90;1.70;;;;;;;5.25;97.35;101015.81;4974527;28;20426;-66
2023/10/06 07:53:45;;;;;;;4.77;1.80;;;;;;;5.24;96.36;101017.63;4974474;28;20760;-69
2023/10/06 07:56:11;;;;;;;3.40;1.70;;;;;;;5.31;96.64;101017.13;4974466;28;20349;-66
2023/10/06 07:58:38;;;;;;;2.73;1.40;;;;;;;5.35;95.99;101016.75;4974572;28;20482;-67
2023/10/06 08:01:08;;;;;;;6.47;2.00;;;;;;;5.22;94.31;100981.75;4974654;28;20266;-70
2023/10/06 08:03:41;;;;;;;4.40;2.20;;;;;;;5.45;95.61;101008.94;4974565;28;20298;-68
2023/10/06 08:06:08;;;;;;;2.17;1.83;;;;;;;5.60;93.12;101028.84;4974401;28;20353;-68
2023/10/06 08:08:35;;;;;;;5.33;1.80;;;;;;;5.67;92.35;101027.38;4973194;28;20277;-66
2023/10/06 08:11:02;;;;;;;6.17;1.67;;;;;;;5.75;92.82;101022.28;4974280;28;20371;-68
2023/10/06 08:13:33;;;;;;;4.37;1.63;;;;;;;5.80;92.90;101019.31;4974401;28;20849;-72
2023/10/06 08:15:59;;;;;;;2.20;1.47;;;;;;;5.85;90.90;101028.53;4974351;28;20394;-67
2023/10/06 08:18:29;;;;;;;6.00;1.60;;;;;;;5.68;89.28;100999.97;4974068;28;20026;-66
2023/10/06 08:21:00;;;;;;;3.10;1.90;;;;;;;5.99;87.69;101029.22;4974240;28;20582;-68
2023/10/06 08:23:27;;;;;;;2.67;2.03;;;;;;;5.92;88.13;101039.47;4974314;28;20054;-69
2023/10/06 08:25:56;;;;;;;2.33;1.63;;;;;;;6.01;87.18;101037.88;4973977;28;20051;-70
2023/10/06 08:28:26;;;;;;;13.00;2.05;;;;;;;6.05;87.25;101039.28;4974306;28;20062;-69
2023/10/06 08:30:52;;;;;;;5.97;1.50;;;;;;;6.13;87.10;101048.28;4974180;28;20031;-67
2023/10/06 08:33:18;;;;;;;3.17;1.60;;;;;;;6.14;86.46;101027.97;4973830;28;20077;-68
2023/10/06 08:35:44;;;;;;;3.17;2.10;;;;;;;6.31;86.09;101045.91;4974317;28;20027;-67
2023/10/06 08:38:10;;;;;;;4.80;1.93;;;;;;;6.33;83.90;101051.06;4973780;28;20448;-68
2023/10/06 08:40:41;;;;;;;2.63;1.87;;;;;;;6.35;84.31;101038.53;4974082;28;20090;-66
2023/10/06 08:43:07;;;;;;;1.77;1.30;;;;;;;6.50;81.25;101056.63;4979096;28;20171;-68
2023/10/06 08:45:40;;;;;;;3.47;1.57;;;;;;;6.44;78.61;101045.72;4974579;28;20484;-67
2023/10/06 08:48:10;;;;;;;4.23;1.87;;;;;;;6.52;78.34;101053.84;4973026;28;20031;-69
2023/10/06 08:50:37;;;;;;;2.47;1.77;;;;;;;6.33;77.11;101017.50;4973503;28;20536;-67
2023/10/06 08:53:10;;;;;;;3.70;2.03;;;;;;;6.49;77.37;101033.78;4972478;28;20077;-68
2023/10/06 08:55:40;;;;;;;2.47;1.57;;;;;;;6.57;75.95;101051.66;4973995;28;20072;-67
2023/10/06 08:58:08;;;;;;;8.23;1.80;;;;;;;6.53;77.24;101042.28;4973369;28;20121;-69
2023/10/06 09:00:36;;;;;;;2.42;1.80;;;;;;;6.64;74.36;101067.84;4973435;28;20129;-68
2023/10/06 09:03:10;;;;;;;4.00;1.88;;;;;;;6.75;74.53;101063.31;4973602;28;20042;-68
2023/10/06 09:05:38;;;;;;;3.53;1.83;;;;;;;6.76;73.96;101057.06;4973696;28;20130;-66
2023/10/06 09:08:07;;;;;;;1.75;1.40;;;;;;;6.82;72.97;101055.69;4973897;28;20421;-70
2023/10/06 09:10:41;;;;;;;3.10;1.57;;;;;;;6.86;73.84;101041.22;4973531;28;20054;-68
2023/10/06 09:13:16;;;;;;;4.33;1.80;;;;;;;6.75;71.80;101022.78;4973525;28;20038;-66
2023/10/06 09:15:54;;;;;;;1.70;1.43;;;;;;;7.05;71.59;101077.56;4972934;28;20546;-69
2023/10/06 09:18:21;;;;;;;3.87;1.60;;;;;;;7.18;72.28;101087.91;4973967;28;20030;-69
2023/10/06 09:20:48;;;;;;;6.43;2.10;;;;;;;7.28;70.56;101078.22;4973347;28;20415;-70
2023/10/06 09:23:36;;;;;;;1.60;1.47;;;;;;;7.34;70.32;101089.13;4975242;28;20041;-65
2023/10/06 09:26:05;;;;;;;2.00;1.52;;;;;;;7.42;67.19;101070.72;4976227;28;20050;-68
2023/10/06 09:28:31;;;;;;;6.13;2.75;;;;;;;7.49;65.14;101086.94;4975542;28;20050;-69
2023/10/06 09:31:01;;;;;;;3.03;2.17;;;;;;;7.53;65.22;101072.47;4977991;28;20106;-66
2023/10/06 09:33:37;;;;;;;3.50;2.87;;;;;;;7.31;65.00;101046.16;4975922;28;20023;-69
2023/10/06 09:36:08;;;;;;;2.40;1.70;;;;;;;7.60;64.44;101092.13;4977673;28;20034;-68
2023/10/06 09:38:36;;;;;;;6.90;3.27;;;;;;;7.56;64.22;101081.94;4977536;28;20042;-68
2023/10/06 09:41:04;;;;;;;7.07;4.07;;;;;;;7.83;61.34;101100.72;4975691;28;20079;-68
2023/10/06 09:43:34;;;;;;;11.47;5.50;;;;;;;7.95;62.18;101088.16;4976182;28;20035;-67
2023/10/06 09:46:08;;;;;;;6.37;3.90;;;;;;;7.83;61.97;101079.50;4973317;28;20023;-68
2023/10/06 09:48:38;;;;;;;15.40;8.27;;;;;;;7.87;60.82;101099.47;4977684;28;20030;-65
2023/10/06 09:51:08;;;;;;;2.80;2.33;;;;;;;7.75;58.21;101072.22;4978585;28;20122;-68
2023/10/06 09:53:38;;;;;;;4.50;2.17;;;;;;;7.83;59.57;101108.66;4975956;28;20034;-67
2023/10/06 09:56:10;;;;;;;2.20;1.40;;;;;;;7.54;59.68;101084.75;4974149;28;20024;-67
2023/10/06 09:58:38;;;;;;;13.33;1.57;;;;;;;7.55;59.21;101098.81;4975300;28;20038;-72
2023/10/06 10:01:05;;;;;;;1.40;1.27;;;;;;;7.55;54.51;101115.56;4977617;28;20026;-70
2023/10/06 10:03:34;;;;;;;12.50;5.10;;;;;;;7.29;57.33;101080.75;4979063;28;20026;-66
2023/10/06 10:06:04;;;;;;;5.90;2.55;;;;;;;7.46;56.36;101113.69;4978413;28;20038;-68
2023/10/06 10:08:33;;;;;;;1.90;1.67;;;;;;;7.45;57.63;101114.66;4977343;28;20039;-66
2023/10/06 10:11:07;;;;;;;5.70;1.90;;;;;;;7.50;59.11;101109.81;4977330;28;20045;-68
2023/10/06 10:13:50;;;;;;;1.77;1.63;;;;;;;7.58;58.89;101111.81;4977178;28;20027;-67
2023/10/06 10:16:52;;;;;;;4.50;1.90;;;;;;;7.65;59.22;101116.44;4977123;28;20034;-69
2023/10/06 10:19:22;;;;;;;17.67;8.00;;;;;;;7.46;58.59;101092.50;4977164;28;20034;-68
2023/10/06 10:21:48;;;;;;;15.00;7.20;;;;;;;7.34;59.75;101096.22;4976209;28;20054;-67
2023/10/06 10:24:19;;;;;;;14.20;5.40;;;;;;;7.38;60.59;101105.59;4977781;28;20027;-67
2023/10/06 10:26:50;;;;;;;3.33;2.33;;;;;;;7.32;60.70;101100.81;4977605;28;20159;-66
2023/10/06 10:29:18;;;;;;;4.80;2.63;;;;;;;7.48;60.43;101119.69;4976802;28;20039;-67
2023/10/06 10:31:51;;;;;;;4.03;2.43;;;;;;;7.43;60.06;101101.56;4976433;28;20034;-68
2023/10/06 10:34:21;;;;;;;2.83;2.23;;;;;;;7.57;61.27;101103.00;4976378;28;20027;-67
2023/10/06 10:36:54;;;;;;;2.83;1.97;;;;;;;7.61;59.65;101130.94;4976703;28;20045;-68
2023/10/06 10:39:22;;;;;;;2.37;1.60;;;;;;;7.63;58.89;101131.63;4977006;28;20074;-68
2023/10/06 10:41:48;;;;;;;7.30;2.35;;;;;;;7.75;58.88;101124.41;4975183;28;20037;-68
2023/10/06 10:44:17;;;;;;;2.33;1.83;;;;;;;7.74;59.03;101099.69;4975321;28;20046;-71
2023/10/06 10:47:00;;;;;;;10.33;1.70;;;;;;;7.98;58.40;101107.28;4976237;28;20121;-67
2023/10/06 10:49:29;;;;;;;3.50;1.90;;;;;;;8.13;58.55;101106.91;4975939;28;20402;-68
2023/10/06 10:52:02;;;;;;;2.77;1.30;;;;;;;8.10;57.13;101078.84;4978141;28;20035;-69
2023/10/06 10:54:31;;;;;;;3.13;1.83;;;;;;;8.41;55.38;101116.72;4974709;28;20095;-68
2023/10/06 10:57:02;;;;;;;;;;;;;;;8.47;56.78;101115.31;4976380;28;20060;-68
2023/10/06 11:02:49;;;;;;;4.30;1.63;;;;;;;8.43;53.25;101098.00;4976255;28;20471;-68
2023/10/06 11:05:19;;;;;;;6.57;1.70;;;;;;;8.51;53.28;101106.09;4975739;28;20026;-69
2023/10/06 11:07:58;;;;;;;1.77;1.50;;;;;;;8.50;52.62;101101.75;4975671;28;20034;-68
2023/10/06 11:10:26;;;;;;;3.20;1.60;;;;;;;8.48;52.60;101115.19;4975730;28;20041;-68
2023/10/06 11:13:15;;;;;;;2.33;2.00;;;;;;;8.48;53.17;101112.53;4975229;28;20030;-67
2023/10/06 11:15:42;;;;;;;5.37;3.13;;;;;;;8.37;52.99;101116.13;4975429;28;20038;-67
2023/10/06 11:18:09;;;;;;;5.27;2.70;;;;;;;8.32;53.29;101102.41;4975441;28;20145;-66
2023/10/06 11:20:36;;;;;;;3.67;2.80;;;;;;;8.23;54.03;101087.34;4975599;28;20027;-67
2023/10/06 11:23:03;;;;;;;3.60;1.60;;;;;;;8.35;52.03;101098.69;4975470;28;20036;-67
2023/10/06 11:25:32;;;;;;;2.40;1.63;;;;;;;8.32;51.42;101088.31;4972759;28;20046;-67
2023/10/06 11:28:04;;;;;;;2.77;1.40;;;;;;;8.21;52.30;101062.78;4974771;28;20121;-66
2023/10/06 11:30:35;;;;;;;3.97;1.70;;;;;;;8.20;52.65;101053.13;4979347;28;20034;-65
2023/10/06 11:33:02;;;;;;;2.17;1.60;;;;;;;8.42;51.78;101091.03;4982724;28;20027;-67
2023/10/06 11:35:29;;;;;;;5.33;3.10;;;;;;;8.38;52.69;101082.47;4986211;28;20028;-68
2023/10/06 11:37:55;;;;;;;2.63;1.60;;;;;;;8.27;51.77;101062.19;4984819;28;20037;-68
2023/10/06 11:40:24;;;;;;;5.10;1.63;;;;;;;8.34;51.66;101067.81;4983590;28;20109;-67
2023/10/06 11:42:50;;;;;;;2.70;1.50;;;;;;;8.32;49.94;101073.22;4981919;28;20176;-68
2023/10/06 11:45:27;;;;;;;3.93;2.33;;;;;;;8.46;51.76;101072.00;4983119;28;20070;-66
2023/10/06 11:47:54;;;;;;;3.30;2.17;;;;;;;8.38;51.13;101070.06;4980860;28;20093;-65
2023/10/06 11:50:24;;;;;;;4.90;2.30;;;;;;;8.53;50.95;101078.41;4981885;28;20042;-66
2023/10/06 11:52:51;;;;;;;1.77;1.33;;;;;;;8.43;51.02;101063.50;4982005;28;20030;-67